createdAt,value
2022-10-14T00:02:58.211Z,79.04
2022-10-14T00:08:02.131Z,79.12
2022-10-14T00:13:04.770Z,79.24
2022-10-14T00:18:08.085Z,79.38
2022-10-14T00:23:12.076Z,79.57
2022-10-14T00:28:14.742Z,79.50
2022-10-14T00:33:17.374Z,79.43
2022-10-14T00:38:21.314Z,79.19
2022-10-14T00:43:25.276Z,79.57
2022-10-14T00:48:27.977Z,79.43
2022-10-14T00:53:33.155Z,79.84
2022-10-14T00:58:36.085Z,79.81
2022-10-14T01:03:41.607Z,79.68
2022-10-14T01:08:48.405Z,79.83
2022-10-14T01:13:57.826Z,80.12
2022-10-14T01:19:15.262Z,80.19
2022-10-14T01:24:41.797Z,80.19
2022-10-14T01:30:09.616Z,80.22
2022-10-14T01:35:19.439Z,80.46
2022-10-14T01:40:30.220Z,80.42
2022-10-14T01:45:35.871Z,80.44
2022-10-14T01:50:39.911Z,80.32
2022-10-14T01:55:44.718Z,80.78
2022-10-14T02:00:48.928Z,80.57
2022-10-14T02:05:55.687Z,80.72
2022-10-14T02:11:06.883Z,80.80
2022-10-14T02:16:15.816Z,80.64
2022-10-14T02:21:23.111Z,80.68
2022-10-14T02:26:27.172Z,80.92
2022-10-14T02:31:32.495Z,80.92
2022-10-14T02:36:36.873Z,81.15
2022-10-14T02:41:41.009Z,81.10
2022-10-14T02:46:45.563Z,81.26
2022-10-14T02:51:48.362Z,81.38
2022-10-14T02:56:50.970Z,81.46
2022-10-14T03:01:54.936Z,81.67
2022-10-14T03:06:57.722Z,81.66
2022-10-14T03:12:01.461Z,81.67
2022-10-14T03:17:06.472Z,81.82
2022-10-14T03:22:10.066Z,81.71
2022-10-14T03:27:14.207Z,81.84
2022-10-14T03:32:20.387Z,81.91
2022-10-14T03:37:42.097Z,81.93
2022-10-14T03:42:44.843Z,82.25
2022-10-14T03:47:49.302Z,82.46
2022-10-14T03:52:55.402Z,82.44
2022-10-14T03:58:05.120Z,82.29
2022-10-14T04:03:09.497Z,82.23
2022-10-14T04:08:16.752Z,82.35
2022-10-14T04:13:26.813Z,82.44
2022-10-14T04:18:31.369Z,82.40
2022-10-14T04:23:36.961Z,82.61
2022-10-14T04:28:48.087Z,82.83
2022-10-14T04:34:07.711Z,83.01
2022-10-14T04:39:15.275Z,82.90
2022-10-14T04:44:18.294Z,83.10
2022-10-14T04:49:27.037Z,82.99
2022-10-14T04:54:39.513Z,82.85
2022-10-14T04:59:42.153Z,82.87
2022-10-14T05:05:18.539Z,82.98
2022-10-14T05:10:25.674Z,82.89
2022-10-14T05:15:30.547Z,83.01
2022-10-14T05:20:48.071Z,83.05
2022-10-14T05:25:51.725Z,83.24
2022-10-14T05:30:55.540Z,83.25
2022-10-14T05:36:00.288Z,83.43
2022-10-14T05:41:07.537Z,83.35
2022-10-14T05:46:11.437Z,83.67
2022-10-14T05:51:21.124Z,83.62
2022-10-14T05:56:28.113Z,83.62
2022-10-14T06:01:31.384Z,84.00
2022-10-14T06:06:35.436Z,84.08
2022-10-14T06:11:38.323Z,84.01
2022-10-14T06:16:42.557Z,84.04
2022-10-14T06:21:47.111Z,84.24
2022-10-14T06:26:50.033Z,84.01
2022-10-14T06:31:52.782Z,84.30
2022-10-14T06:37:01.990Z,84.01
2022-10-14T06:42:08.351Z,83.77
2022-10-14T06:47:15.113Z,83.45
2022-10-14T06:52:19.302Z,83.27
2022-10-14T06:57:22.045Z,83.10
2022-10-14T07:02:25.055Z,82.99
2022-10-14T07:07:29.297Z,82.62
2022-10-14T07:12:31.894Z,82.27
2022-10-14T07:17:34.548Z,82.23
2022-10-14T07:22:39.183Z,82.06
2022-10-14T07:27:41.929Z,82.04
2022-10-14T07:32:44.533Z,81.98
2022-10-14T07:37:49.113Z,82.18
2022-10-14T07:42:51.700Z,82.01
2022-10-14T07:47:54.292Z,81.97
2022-10-14T07:53:01.219Z,81.64
2022-10-14T07:58:04.260Z,81.57
2022-10-14T08:03:06.858Z,81.45
2022-10-14T08:08:11.852Z,80.99
2022-10-14T08:13:14.485Z,81.27
2022-10-14T08:18:17.120Z,81.03
2022-10-14T08:23:21.286Z,81.03
2022-10-14T08:28:23.952Z,81.04
2022-10-14T08:33:26.640Z,80.90
2022-10-14T08:38:30.745Z,80.71
2022-10-14T08:43:35.854Z,80.77
2022-10-14T08:48:38.911Z,80.05
2022-10-14T08:53:45.625Z,79.79
2022-10-14T08:58:50.259Z,79.69
2022-10-14T09:03:56.221Z,79.71
2022-10-14T09:09:06.985Z,80.07
2022-10-14T09:14:13.026Z,80.41
2022-10-14T09:19:22.184Z,80.59
2022-10-14T09:24:27.861Z,80.83
2022-10-14T09:29:32.392Z,80.59
2022-10-14T09:34:37.955Z,80.48
2022-10-14T09:39:42.548Z,80.02
2022-10-14T09:44:45.146Z,79.07
2022-10-14T09:49:49.249Z,78.09
2022-10-14T09:54:58.561Z,77.64
2022-10-14T10:00:06.463Z,76.91
2022-10-14T10:05:13.365Z,76.25
2022-10-14T10:10:21.937Z,76.04
2022-10-14T10:15:24.805Z,75.96
2022-10-14T10:20:33.126Z,76.28
2022-10-14T10:25:37.141Z,76.03
2022-10-14T10:30:46.281Z,75.70
2022-10-14T10:36:10.262Z,75.26
2022-10-14T10:41:26.714Z,76.13
2022-10-14T10:46:46.040Z,75.87
2022-10-14T10:51:55.699Z,75.33
2022-10-14T10:57:04.303Z,75.49
2022-10-14T11:02:33.223Z,75.32
2022-10-14T11:07:59.376Z,74.89
2022-10-14T11:13:13.149Z,75.12
2022-10-14T11:18:21.644Z,75.23
2022-10-14T11:23:44.671Z,74.88
2022-10-14T11:28:54.778Z,74.44
2022-10-14T11:34:11.059Z,73.47
2022-10-14T11:39:24.604Z,72.54
2022-10-14T11:44:32.679Z,71.18
2022-10-14T11:49:39.970Z,69.64
2022-10-14T11:54:45.495Z,68.88
2022-10-14T12:00:11.282Z,68.90
2022-10-14T12:05:21.729Z,67.62
2022-10-14T12:10:28.665Z,63.97
2022-10-14T12:15:33.230Z,66.40
2022-10-14T12:20:41.423Z,63.21
2022-10-14T12:25:49.832Z,68.12
2022-10-14T12:31:25.800Z,67.76
2022-10-14T12:41:43.629Z,68.79
2022-10-14T12:46:49.399Z,68.13
2022-10-14T12:51:56.080Z,66.65
2022-10-14T12:57:01.394Z,67.01
2022-10-14T13:02:17.945Z,68.15
2022-10-14T13:07:45.794Z,68.09
2022-10-14T13:12:48.999Z,68.08
2022-10-14T13:17:53.928Z,68.68
2022-10-14T13:23:19.159Z,69.48
2022-10-14T13:28:25.500Z,69.75
2022-10-14T13:33:34.115Z,68.97
2022-10-14T13:38:37.627Z,66.95
2022-10-14T13:43:43.256Z,67.00
2022-10-14T13:48:48.441Z,67.07
2022-10-14T13:53:52.779Z,67.06
2022-10-14T13:58:55.484Z,67.31
2022-10-14T14:03:59.953Z,67.77
2022-10-14T14:09:04.007Z,67.90
2022-10-14T14:14:09.661Z,67.52
2022-10-14T14:19:20.270Z,67.98
2022-10-14T14:24:25.058Z,68.06
2022-10-14T14:29:29.922Z,68.71
2022-10-14T14:34:35.559Z,69.01
2022-10-14T14:39:40.350Z,69.09
2022-10-14T14:44:46.028Z,69.40
2022-10-14T14:50:01.410Z,69.58
2022-10-14T14:55:34.740Z,69.79
2022-10-14T15:00:37.339Z,69.64
2022-10-14T15:05:41.601Z,69.58
2022-10-14T15:10:48.372Z,69.37
2022-10-14T15:15:53.768Z,68.29
2022-10-14T15:21:18.903Z,68.11
2022-10-14T15:26:29.418Z,68.67
2022-10-14T15:31:32.169Z,69.04
2022-10-14T15:36:36.247Z,69.05
2022-10-14T15:41:39.363Z,69.36
2022-10-14T15:47:02.119Z,69.60
2022-10-14T15:52:06.158Z,69.94
2022-10-14T15:57:11.270Z,70.13
2022-10-14T16:02:19.098Z,70.36
2022-10-14T16:07:23.357Z,70.76
2022-10-14T16:12:27.586Z,71.14
2022-10-14T16:17:31.993Z,71.24
2022-10-14T16:22:36.126Z,71.69
2022-10-14T16:27:39.017Z,72.00
2022-10-14T16:32:42.103Z,72.12
2022-10-14T16:37:46.072Z,72.15
2022-10-14T16:42:49.186Z,72.57
2022-10-14T16:47:54.319Z,72.77
2022-10-14T16:53:16.063Z,72.94
2022-10-14T16:58:18.683Z,72.83
2022-10-14T17:03:21.442Z,73.12
2022-10-14T17:08:28.850Z,73.05
2022-10-14T17:13:31.841Z,73.15
2022-10-14T17:18:35.731Z,73.07
2022-10-14T17:23:42.392Z,73.25
2022-10-14T17:28:46.026Z,73.29
2022-10-14T17:33:48.782Z,73.14
2022-10-14T17:38:53.123Z,72.91
2022-10-14T17:43:57.206Z,73.15
2022-10-14T17:49:01.628Z,73.18
2022-10-14T17:54:07.796Z,73.03
2022-10-14T17:59:13.992Z,73.08
2022-10-14T18:04:17.224Z,73.05
2022-10-14T18:09:21.348Z,73.11
2022-10-14T18:14:25.059Z,73.27
2022-10-14T18:19:28.097Z,73.37
2022-10-14T18:24:32.417Z,73.72
2022-10-14T18:29:35.188Z,73.44
2022-10-14T18:34:37.922Z,73.54
2022-10-14T18:39:42.250Z,73.63
2022-10-14T18:44:45.089Z,73.72
2022-10-14T18:49:53.232Z,73.56
2022-10-14T18:54:58.004Z,73.66
2022-10-14T19:00:00.584Z,73.57
2022-10-14T19:05:03.204Z,73.63
2022-10-14T19:10:08.249Z,73.77
2022-10-14T19:15:12.080Z,74.07
2022-10-14T19:20:15.154Z,74.00
2022-10-14T19:25:20.487Z,74.06
2022-10-14T19:30:23.165Z,74.19
2022-10-14T19:35:25.757Z,74.10
2022-10-14T19:40:29.909Z,74.18
2022-10-14T19:45:32.561Z,74.38
2022-10-14T19:50:35.179Z,74.47
2022-10-14T19:55:39.584Z,74.22
2022-10-14T20:00:42.278Z,74.37
2022-10-14T20:05:44.961Z,74.54
2022-10-14T20:10:48.942Z,74.50
2022-10-14T20:15:55.036Z,74.30
2022-10-14T20:20:57.717Z,74.42
2022-10-14T20:26:02.767Z,74.48
2022-10-14T20:31:07.047Z,74.43
2022-10-14T20:36:12.874Z,74.76
2022-10-14T20:41:19.046Z,74.99
2022-10-14T20:46:23.177Z,75.17
2022-10-14T20:51:26.017Z,75.42
2022-10-14T20:56:31.176Z,75.64
2022-10-14T21:01:35.411Z,75.78
2022-10-14T21:06:39.246Z,75.98
2022-10-14T21:11:44.552Z,75.99
2022-10-14T21:16:47.381Z,76.13
2022-10-14T21:21:50.112Z,76.27
2022-10-14T21:26:55.411Z,76.15
2022-10-14T21:31:58.173Z,76.28
2022-10-14T21:37:00.817Z,76.33
2022-10-14T21:42:05.058Z,76.53
2022-10-14T21:47:07.636Z,76.66
2022-10-14T21:52:14.134Z,76.74
2022-10-14T21:57:18.130Z,76.83
2022-10-14T22:02:22.522Z,77.05
2022-10-14T22:07:25.631Z,76.98
2022-10-14T22:12:30.642Z,77.31
2022-10-14T22:17:33.610Z,77.65
2022-10-14T22:22:36.288Z,77.69
2022-10-14T22:27:40.232Z,77.67
2022-10-14T22:32:42.906Z,78.00
2022-10-14T22:37:45.534Z,78.33
2022-10-14T22:42:51.550Z,78.29
2022-10-14T22:47:54.334Z,78.49
2022-10-14T22:52:56.962Z,78.69
2022-10-14T22:58:00.900Z,78.66
2022-10-14T23:03:03.519Z,78.99
2022-10-14T23:08:09.797Z,79.20
2022-10-14T23:13:13.729Z,79.12
2022-10-14T23:18:16.338Z,79.22
2022-10-14T23:23:19.209Z,79.50
2022-10-14T23:28:23.185Z,79.75
2022-10-14T23:33:26.019Z,79.94
2022-10-14T23:38:28.654Z,80.21
2022-10-14T23:43:32.774Z,80.25
2022-10-14T23:48:35.751Z,80.35
2022-10-14T23:53:38.329Z,80.74
2022-10-14T23:58:42.347Z,80.77
